Observations for DINARD PLEURTUIT, France (LFRD)

LFRD 252200Z AUTO 32006KT 9000 OVC011 15/14 Q1022 TEMPO 3000 RADZ BKN004
LFRD 252130Z AUTO 30004KT 9000 OVC011 15/13 Q1022 TEMPO 3000 RADZ BKN004
LFRD 252100Z AUTO 31006KT 9000 SCT012 BKN038 15/13 Q1022 TEMPO 3000 RADZ BKN004 
LFRD 252030Z AUTO 30008KT 9999 BKN011 OVC038 15/13 Q1022 TEMPO 3000 RADZ BKN004 
LFRD 252000Z AUTO 31008KT 9000 SCT011 BKN035 15/13 Q1022 TEMPO 3000 RADZ BKN004 
LFRD 251930Z AUTO 31009KT 9000 BKN011 BKN025 OVC035 15/14 Q1022 TEMPO 3000 RADZ BKN004  
LFRD 251900Z AUTO 31010KT 9999 OVC009 15/14 Q1022 TEMPO 3000 RADZ BKN004
LFRD 251830Z AUTO 31010KT 9999 BKN009 BKN014 OVC025 16/14 Q1022 TEMPO 3000 RADZ BKN004  
LFRD 251800Z AUTO 32010KT 9999 SCT009 SCT013 OVC023 16/14 Q1021 TEMPO 3000 RADZ BKN004  
LFRD 251730Z AUTO 32010KT 9000 BKN009 BKN015 OVC025 16/14 Q1021 TEMPO 3000 RADZ BKN004  
LFRD 251700Z AUTO 31010KT 9000 BKN007 BKN011 OVC025 16/15 Q1021 TEMPO 3000 RADZ 
LFRD 251630Z AUTO 33010KT 9000 BKN008 BKN012 OVC023 16/15 Q1021 TEMPO 3000 RADZ 
LFRD 251600Z AUTO 33011KT 8000 BKN007 BKN015 OVC020 16/15 Q1020 TEMPO 3000 RADZ 
LFRD 251530Z AUTO 33009KT 9999 BKN007 OVC013 16/15 Q1020 TEMPO BKN018   
LFRD 251500Z AUTO 33010KT 9999 BKN008 OVC013 17/15 Q1020 TEMPO 3000 RADZ BKN018 
LFRD 251430Z AUTO 32010KT 9000 BKN005 OVC010 16/15 Q1020 TEMPO BKN014   
LFRD 251400Z AUTO 34010KT 9999 2400 BKN008 OVC015 17/16 Q1020 TEMPO BKN014  
LFRD 251330Z AUTO 34011KT 9999 BKN008 BKN014 OVC019 17/15 Q1020 TEMPO BKN014
LFRD 251300Z AUTO 34010KT 9999 BKN007 BKN012 OVC022 17/15 Q1019 TEMPO 3000 RADZ BKN014  
LFRD 251230Z AUTO 35010KT 9999 BKN006 OVC012 17/15 Q1019 TEMPO 3000 RADZ BKN014 
LFRD 251200Z AUTO 34010KT 9999 BKN007 OVC020 17/16 Q1019 TEMPO 3000 RADZ
LFRD 251130Z AUTO 33011KT 9999 BKN006 OVC012 17/16 Q1019 TEMPO 3000 RADZ
LFRD 251100Z AUTO 32009KT 9000 OVC007 18/16 Q1019 TEMPO 3000 RA BKN003  
LFRD 251030Z AUTO 32009KT 9000 BKN005 OVC009 17/16 Q1019 TEMPO 3000 RA  
LFRD 251000Z AUTO 32008KT 9999 OVC006 17/16 Q1019 TEMPO 3000 RA BKN003  
LFRD 250930Z AUTO 31008KT 9999 BKN005 OVC019 16/16 Q1019 TEMPO 3000 RA  
LFRD 250900Z AUTO 32004KT 8000 -RA BKN004 OVC009 16/15 Q1019 TEMPO 3000 RA  
LFRD 250830Z AUTO 25004KT 7000 BKN006 OVC015 15/15 Q1018 TEMPO 4000 RA BECMG 31010KT
LFRD 250800Z AUTO 27004KT 9999 OVC004 15/15 Q1018 TEMPO 4000 RA BKN008  
LFRD 250730Z AUTO 27004KT 9999 BKN004 BKN008 BKN013 15/15 Q1018 TEMPO 4000 RA BKN008
LFRD 250700Z AUTO 29005KT 7000 -RA OVC003 15/15 Q1018 TEMPO 4000 RA BKN008  
LFRD 250630Z AUTO 30004KT 5000 -RA BR BKN004 OVC019 15/15 Q1018 TEMPO 2000 RA BKN008
LFRD 250600Z AUTO 30004KT 9999 SCT003 BKN007 OVC013 15/15 Q1017 TEMPO 2000 RA BKN003
LFRD 250530Z AUTO 28003KT 9999 -RA BKN003 OVC009 15/15 Q1017 TEMPO 2000 RA  
LFRD 250500Z AUTO 29003KT 9999 -RA FEW009 BKN015 OVC023 15/14 Q1017 TEMPO 4000 RA BKN008
LFRD 250430Z AUTO VRB03KT 8000 -RA BKN007/// BKN012/// OVC062/// ///TCU 15/14 Q1017 TEMPO 4000 RA BKN008
LFRD 250400Z AUTO 33003KT 5000 -RA BR OVC004/// ///TCU 15/15 Q1017 TEMPO 2000 RA BKN003 
LFRD 250330Z AUTO 34005KT 5000 BR BKN003 OVC007 15/15 Q1017 TEMPO 2000 RA   
LFRD 250300Z AUTO 34006KT 4200 -DZ BR OVC003 16/15 Q1017 TEMPO 2000 RA  
LFRD 250230Z AUTO 32004KT 4800 BR OVC003 16/15 Q1017 TEMPO 2000 RA  
LFRD 250200Z AUTO 33005KT 6000 -DZ BKN002 OVC007 16/15 Q1017 TEMPO 2000 RA  
LFRD 250130Z AUTO 23004KT 180V280 3600 DZ BR OVC007 16/16 Q1017 TEMPO 2000 RA BKN003
LFRD 250100Z AUTO 20004KT 9999 -RA BKN006 OVC010 16/16 Q1017 TEMPO 2000 RA BKN003   
LFRD 250030Z AUTO 20003KT 9999 -RA FEW007/// OVC022/// ///TCU 16/16 Q1017 TEMPO 2000 RA BKN003  
LFRD 250000Z AUTO 20005KT 9999 -RA FEW005/// BKN014/// OVC022/// ///TCU 16/16 Q1017 TEMPO 2000 RA BKN003
LFRD 242330Z AUTO 20006KT 8000 RA FEW009/// BKN014/// OVC100/// ///CB 16/16 Q1018 TEMPO 2000 RA BKN003  
LFRD 242300Z AUTO 19004KT 6000 RA BKN006/// BKN010/// BKN076/// ///CB 16/16 Q1018 TEMPO 2000 RA BKN003  
LFRD 242230Z AUTO 18001KT 6000 RA BKN005/// BKN009/// OVC084/// ///CB 17/16 Q1018 TEMPO 2000 RA BKN003  
LFRD 242200Z AUTO VRB02KT 9999 BKN004/// BKN012/// BKN022/// ///TCU 17/16 Q1018 TEMPO 2000 RA BKN003
LFRD 242130Z AUTO 26003KT 9999 -RA SCT022 SCT031 BKN042 17/16 Q1018 TEMPO 2000 RA BKN003